createdAt,value
2022-10-09T00:01:06.211Z,8.49
2022-10-09T00:06:09.591Z,8.44
2022-10-09T00:11:12.890Z,8.45
2022-10-09T00:16:16.277Z,8.33
2022-10-09T00:21:19.598Z,8.35
2022-10-09T00:26:22.834Z,8.43
2022-10-09T00:31:26.272Z,8.39
2022-10-09T00:36:29.444Z,8.24
2022-10-09T00:41:34.030Z,8.23
2022-10-09T00:46:37.673Z,8.19
2022-10-09T00:51:41.801Z,8.08
2022-10-09T00:56:45.753Z,8.17
2022-10-09T01:01:49.238Z,8.12
2022-10-09T01:06:52.670Z,7.98
2022-10-09T01:11:55.894Z,7.95
2022-10-09T01:16:59.188Z,7.84
2022-10-09T01:22:02.493Z,7.91
2022-10-09T01:27:05.689Z,7.86
2022-10-09T01:32:09.143Z,7.80
2022-10-09T01:37:12.404Z,7.65
2022-10-09T01:42:15.729Z,7.74
2022-10-09T01:47:19.253Z,7.73
2022-10-09T01:52:22.477Z,7.59
2022-10-09T01:57:25.905Z,7.61
2022-10-09T02:02:29.412Z,7.61
2022-10-09T02:07:32.769Z,7.61
2022-10-09T02:12:36.161Z,7.64
2022-10-09T02:17:39.343Z,7.59
2022-10-09T02:22:42.777Z,7.58
2022-10-09T02:27:46.054Z,7.56
2022-10-09T02:32:50.002Z,7.53
2022-10-09T02:37:53.798Z,7.44
2022-10-09T02:42:57.448Z,7.44
2022-10-09T02:48:00.762Z,7.46
2022-10-09T02:53:04.704Z,7.43
2022-10-09T02:58:08.001Z,7.39
2022-10-09T03:03:11.340Z,7.35
2022-10-09T03:08:14.500Z,7.34
2022-10-09T03:13:17.690Z,7.36
2022-10-09T03:18:20.860Z,7.25
2022-10-09T03:23:24.149Z,7.33
2022-10-09T03:28:27.386Z,7.26
2022-10-09T03:33:30.720Z,7.18
2022-10-09T03:38:33.894Z,7.12
2022-10-09T03:43:37.177Z,7.03
2022-10-09T03:48:41.308Z,7.04
2022-10-09T03:53:44.497Z,6.99
2022-10-09T03:58:48.337Z,7.00
2022-10-09T04:03:51.557Z,6.90
2022-10-09T04:08:54.801Z,6.89
2022-10-09T04:13:58.036Z,7.01
2022-10-09T04:19:01.225Z,7.07
2022-10-09T04:24:04.510Z,7.09
2022-10-09T04:29:07.644Z,7.01
2022-10-09T04:34:10.955Z,6.97
2022-10-09T04:39:14.685Z,6.94
2022-10-09T04:44:18.013Z,6.92
2022-10-09T04:49:21.178Z,6.80
2022-10-09T04:54:29.267Z,6.71
2022-10-09T04:59:32.673Z,6.83
2022-10-09T05:04:35.938Z,6.73
2022-10-09T05:09:39.232Z,6.59
2022-10-09T05:14:42.528Z,6.51
2022-10-09T05:19:45.997Z,6.55
2022-10-09T05:24:49.282Z,6.49
2022-10-09T05:29:52.560Z,6.36
2022-10-09T05:34:55.945Z,6.48
2022-10-09T05:39:59.148Z,6.53
2022-10-09T05:45:02.507Z,6.55
2022-10-09T05:50:06.817Z,6.61
2022-10-09T05:55:10.295Z,6.63
2022-10-09T06:00:13.945Z,6.69
2022-10-09T06:05:17.261Z,6.81
2022-10-09T06:10:20.535Z,6.86
2022-10-09T06:15:25.750Z,6.88
2022-10-09T06:20:29.874Z,6.87
2022-10-09T06:25:33.819Z,6.97
2022-10-09T06:30:38.869Z,7.10
2022-10-09T06:35:42.450Z,7.18
2022-10-09T06:40:45.859Z,7.26
2022-10-09T06:45:49.289Z,7.24
2022-10-09T06:50:52.705Z,7.44
2022-10-09T06:55:56.080Z,7.40
2022-10-09T07:00:59.663Z,7.77
2022-10-09T07:06:02.992Z,7.99
2022-10-09T07:11:06.344Z,8.03
2022-10-09T07:16:09.856Z,7.93
2022-10-09T07:21:13.117Z,8.04
2022-10-09T07:26:16.276Z,8.33
2022-10-09T07:31:19.516Z,8.48
2022-10-09T07:36:22.784Z,8.32
2022-10-09T07:41:25.939Z,8.72
2022-10-09T07:46:33.340Z,8.87
2022-10-09T07:51:37.122Z,9.05
2022-10-09T07:56:40.400Z,9.05
2022-10-09T08:01:43.651Z,9.47
2022-10-09T08:06:50.148Z,9.29
2022-10-09T08:11:53.309Z,9.61
2022-10-09T08:17:06.629Z,9.80
2022-10-09T08:22:09.934Z,10.06
2022-10-09T08:27:13.434Z,10.36
2022-10-09T08:32:16.744Z,10.36
2022-10-09T08:37:20.199Z,10.58
2022-10-09T08:42:23.492Z,10.80
2022-10-09T08:47:26.686Z,10.80
2022-10-09T08:52:30.021Z,11.05
2022-10-09T08:57:33.345Z,10.98
2022-10-09T09:02:37.238Z,11.02
2022-10-09T09:07:41.085Z,11.43
2022-10-09T09:12:44.438Z,11.71
2022-10-09T09:17:48.124Z,12.07
2022-10-09T09:22:52.540Z,12.04
2022-10-09T09:27:55.904Z,12.07
2022-10-09T09:32:59.292Z,11.99
2022-10-09T09:38:02.863Z,12.14
2022-10-09T09:43:06.252Z,12.15
2022-10-09T09:48:09.583Z,12.18
2022-10-09T09:53:12.906Z,12.55
2022-10-09T09:58:16.169Z,12.58
2022-10-09T10:03:20.004Z,13.28
2022-10-09T10:08:23.429Z,12.88
2022-10-09T10:13:26.584Z,12.64
2022-10-09T10:18:30.949Z,13.05
2022-10-09T10:23:34.320Z,13.16
2022-10-09T10:28:37.703Z,13.39
2022-10-09T10:33:41.030Z,13.01
2022-10-09T10:38:44.388Z,12.94
2022-10-09T10:43:47.769Z,12.76
2022-10-09T10:48:51.880Z,13.01
2022-10-09T10:53:55.350Z,12.93
2022-10-09T10:58:58.705Z,13.30
2022-10-09T11:04:02.011Z,13.66
2022-10-09T11:09:06.182Z,13.46
2022-10-09T11:14:19.273Z,13.75
2022-10-09T11:19:23.388Z,14.02
2022-10-09T11:24:27.227Z,14.36
2022-10-09T11:29:31.099Z,13.99
2022-10-09T11:34:34.255Z,13.76
2022-10-09T11:39:37.434Z,13.78
2022-10-09T11:44:40.672Z,13.76
2022-10-09T11:49:43.896Z,14.12
2022-10-09T11:54:47.084Z,14.21
2022-10-09T11:59:51.822Z,14.10
2022-10-09T12:04:55.783Z,13.81
2022-10-09T12:10:00.053Z,13.92
2022-10-09T12:15:04.589Z,13.92
2022-10-09T12:20:08.032Z,14.26
2022-10-09T12:25:11.361Z,14.70
2022-10-09T12:30:18.555Z,14.11
2022-10-09T12:35:22.540Z,13.98
2022-10-09T12:40:30.095Z,14.46
2022-10-09T12:45:33.990Z,14.30
2022-10-09T12:50:37.463Z,14.00
2022-10-09T12:55:40.874Z,14.01
2022-10-09T13:00:44.357Z,14.32
2022-10-09T13:05:50.789Z,14.05
2022-10-09T13:10:53.994Z,14.19
2022-10-09T13:15:57.237Z,13.93
2022-10-09T13:21:00.449Z,13.96
2022-10-09T13:26:03.949Z,13.71
2022-10-09T13:31:08.063Z,13.94
2022-10-09T13:36:11.466Z,14.15
2022-10-09T13:41:14.721Z,13.84
2022-10-09T13:46:18.296Z,13.87
2022-10-09T13:51:21.716Z,13.95
2022-10-09T13:56:26.208Z,13.58
2022-10-09T14:01:30.278Z,13.65
2022-10-09T14:06:33.548Z,13.74
2022-10-09T14:11:36.858Z,13.45
2022-10-09T14:16:40.239Z,13.38
2022-10-09T14:21:43.531Z,13.29
2022-10-09T14:26:51.353Z,13.43
2022-10-09T14:31:55.102Z,13.22
2022-10-09T14:36:58.574Z,13.11
2022-10-09T14:42:02.154Z,12.94
2022-10-09T14:47:05.537Z,12.89
2022-10-09T14:52:13.442Z,12.81
2022-10-09T14:57:17.075Z,12.78
2022-10-09T15:02:20.690Z,12.69
2022-10-09T15:07:24.586Z,12.73
2022-10-09T15:12:28.172Z,12.65
2022-10-09T15:17:31.949Z,12.46
2022-10-09T15:22:35.364Z,12.36
2022-10-09T15:27:38.538Z,12.44
2022-10-09T15:32:41.812Z,12.54
2022-10-09T15:37:45.012Z,12.36
2022-10-09T15:42:48.445Z,12.22
2022-10-09T15:47:51.990Z,12.13
2022-10-09T15:52:57.006Z,12.06
2022-10-09T15:58:00.521Z,12.13
2022-10-09T16:03:03.729Z,12.03
2022-10-09T16:08:07.168Z,12.10
2022-10-09T16:13:11.628Z,12.11
2022-10-09T16:18:14.789Z,11.86
2022-10-09T16:23:28.047Z,11.83
2022-10-09T16:28:32.435Z,11.78
2022-10-09T16:33:35.802Z,11.70
2022-10-09T16:38:39.001Z,11.58
2022-10-09T16:43:43.517Z,11.43
2022-10-09T16:48:47.279Z,11.32
2022-10-09T16:53:50.704Z,11.27
2022-10-09T16:58:54.061Z,11.18
2022-10-09T17:03:57.428Z,11.05
2022-10-09T17:09:00.590Z,10.98
2022-10-09T17:14:12.355Z,10.90
2022-10-09T17:19:16.115Z,10.86
2022-10-09T17:24:19.290Z,10.73
2022-10-09T17:29:22.584Z,10.68
2022-10-09T17:34:25.770Z,10.62
2022-10-09T17:39:29.630Z,10.58
2022-10-09T17:44:33.005Z,10.49
2022-10-09T17:49:36.286Z,10.32
2022-10-09T17:54:39.990Z,10.29
2022-10-09T17:59:43.349Z,10.26
2022-10-09T18:04:46.709Z,10.11
2022-10-09T18:09:50.032Z,10.06
2022-10-09T18:14:53.331Z,9.87
2022-10-09T18:19:56.586Z,9.83
2022-10-09T18:24:59.848Z,9.80
2022-10-09T18:30:03.119Z,9.85
2022-10-09T18:35:06.422Z,9.80
2022-10-09T18:40:10.125Z,9.73
2022-10-09T18:45:14.080Z,9.71
2022-10-09T18:50:17.590Z,9.61
2022-10-09T18:55:21.202Z,9.51
2022-10-09T19:00:26.734Z,9.40
2022-10-09T19:05:32.596Z,9.45
2022-10-09T19:10:35.766Z,9.31
2022-10-09T19:15:39.295Z,9.34
2022-10-09T19:20:42.748Z,9.31
2022-10-09T19:25:46.154Z,9.29
2022-10-09T19:30:49.373Z,9.18
2022-10-09T19:35:52.988Z,9.13
2022-10-09T19:40:56.439Z,9.16
2022-10-09T19:46:00.004Z,9.05
2022-10-09T19:51:03.310Z,9.01
2022-10-09T19:56:06.943Z,8.99
2022-10-09T20:01:11.035Z,8.98
2022-10-09T20:06:14.787Z,8.95
2022-10-09T20:11:20.425Z,9.07
2022-10-09T20:16:23.745Z,9.06
2022-10-09T20:21:27.087Z,9.09
2022-10-09T20:26:31.498Z,9.06
2022-10-09T20:31:35.075Z,9.02
2022-10-09T20:36:39.247Z,9.07
2022-10-09T20:41:42.486Z,9.14
2022-10-09T20:46:45.753Z,9.16
2022-10-09T20:51:49.180Z,9.15
2022-10-09T20:56:52.586Z,9.18
2022-10-09T21:01:55.801Z,9.16
2022-10-09T21:06:58.993Z,9.13
2022-10-09T21:12:02.545Z,9.14
2022-10-09T21:17:05.809Z,9.07
2022-10-09T21:22:09.255Z,9.11
2022-10-09T21:27:12.647Z,9.06
2022-10-09T21:32:16.001Z,9.04
2022-10-09T21:37:22.105Z,9.08
2022-10-09T21:42:25.766Z,9.01
2022-10-09T21:47:29.152Z,9.01
2022-10-09T21:52:32.423Z,9.02
2022-10-09T21:57:35.615Z,8.93
2022-10-09T22:02:38.973Z,8.83
2022-10-09T22:07:42.393Z,8.82
2022-10-09T22:12:45.579Z,8.77
2022-10-09T22:17:48.750Z,8.74
2022-10-09T22:22:52.358Z,8.64
2022-10-09T22:27:56.046Z,8.57
2022-10-09T22:32:59.380Z,8.52
2022-10-09T22:38:02.546Z,8.53
2022-10-09T22:43:05.857Z,8.43
2022-10-09T22:48:09.246Z,8.39
2022-10-09T22:53:12.719Z,8.39
2022-10-09T22:58:16.029Z,8.34
2022-10-09T23:03:19.268Z,8.29
2022-10-09T23:08:22.672Z,8.23
2022-10-09T23:13:26.532Z,8.24
2022-10-09T23:18:29.781Z,8.15
2022-10-09T23:23:34.214Z,8.04
2022-10-09T23:28:37.549Z,8.31
2022-10-09T23:33:40.829Z,8.61
2022-10-09T23:38:44.410Z,8.84
2022-10-09T23:43:47.716Z,9.06
2022-10-09T23:48:50.995Z,9.23
2022-10-09T23:53:54.273Z,9.34
2022-10-09T23:58:57.645Z,9.31
